Buoy 46623

sailwx.info

Track history (hours):
 
Tides and Currents Weather Stations Pressure Air Temp Water Temp Dewpoint Dewpoint Depression Visibility Wind Speed Wind Dir Waves Ship Positions

Drifting buoy 46623

Last reported at 2017-Sep-21 19:00 UTC. Time now 2017-Sep-21 23:13 UTC.
Position N 20°14' W 138°23'.

Date/timePositionNaut miles runAvg speedWind from/ knotsBaromVisibWave heightAir tempDewpointWater temp
2017-Sep-21 19:00N 20°14' W 138°23'1 0.8
2017-Sep-21 18:00N 20°15' W 138°22'1 0.6
2017-Sep-21 17:00N 20°16' W 138°22'0 0.0
2017-Sep-21 16:00N 20°16' W 138°22'1 0.7
2017-Sep-21 14:00N 20°17' W 138°22'1 0.6
2017-Sep-21 13:00N 20°17' W 138°21'3 2.9
2017-Sep-21 12:00N 20°19' W 138°19'0 0.0
2017-Sep-21 07:00N 20°19' W 138°19'1 0.6
2017-Sep-21 06:00N 20°19' W 138°18'1 1.3
2017-Sep-21 05:00N 20°19' W 138°17'1 0.8
2017-Sep-21 04:00N 20°20' W 138°16'1 1.3
2017-Sep-21 03:00N 20°20' W 138°17'2 1.8
2017-Sep-21 02:00N 20°21' W 138°16'0 0.0
2017-Sep-21 01:00N 20°21' W 138°16'1 0.7
2017-Sep-20 23:00N 20°22' W 138°15'4 0.9
2017-Sep-20 19:00N 20°25' W 138°13'1 0.3
2017-Sep-20 17:00N 20°25' W 138°12'0 0.0
2017-Sep-20 16:00N 20°25' W 138°12'0 0.0
2017-Sep-20 15:00N 20°25' W 138°12'1 0.8
2017-Sep-20 14:00N 20°26' W 138°11'1 0.6
2017-Sep-20 13:00N 20°26' W 138°11'3 3.1
2017-Sep-20 12:00N 20°28' W 138°08'0 0.0
2017-Sep-20 07:00N 20°28' W 138°08'1 1.3
2017-Sep-20 06:00N 20°28' W 138°07'1 0.6
2017-Sep-20 05:00N 20°29' W 138°07'1 0.6
2017-Sep-20 04:00N 20°29' W 138°07'1 0.6
2017-Sep-20 02:00N 20°29' W 138°06'0 0.0
2017-Sep-20 01:00N 20°29' W 138°06'3 3.1
2017-Sep-20 00:00N 20°31' W 138°03'0 0.0
2017-Sep-19 20:00N 20°31' W 138°03'1 0.8
2017-Sep-19 19:00N 20°31' W 138°02'1 0.4
2017-Sep-19 17:00N 20°31' W 138°02'1 0.6
2017-Sep-19 16:00N 20°31' W 138°02'2 1.7
2017-Sep-19 15:00N 20°31' W 138°00'2 0.9
2017-Sep-19 13:00N 20°32' W 138°02'5 4.8
2017-Sep-19 12:00N 20°34' W 137°57'0 0.0
2017-Sep-19 07:00N 20°34' W 137°57'1 0.6
2017-Sep-19 06:00N 20°34' W 137°56'1 0.6
2017-Sep-19 05:00N 20°34' W 137°56'2 1.6
2017-Sep-19 04:00N 20°35' W 137°55'0 0.0
2017-Sep-19 02:00N 20°35' W 137°55'1 0.3
2017-Sep-19 00:00N 20°35' W 137°55'1 0.6
2017-Sep-18 23:00N 20°35' W 137°55'4 0.9
2017-Sep-18 19:00N 20°37' W 137°52'0 0.0
2017-Sep-18 18:00N 20°37' W 137°52'0 0.0
2017-Sep-18 17:00N 20°37' W 137°52'1 1.3
2017-Sep-18 16:00N 20°37' W 137°50'0 0.0
2017-Sep-18 14:00N 20°37' W 137°50'1 0.8
2017-Sep-18 13:00N 20°38' W 137°50'2 2.5
2017-Sep-18 12:00N 20°40' W 137°48'1 0.2
2017-Sep-18 07:00N 20°40' W 137°47'1 0.6
2017-Sep-18 06:00N 20°41' W 137°47'1 0.6
2017-Sep-18 05:00N 20°41' W 137°47'1 0.8
2017-Sep-18 04:00N 20°41' W 137°46'2 2.1
2017-Sep-18 03:00N 20°43' W 137°45'0 0.0
2017-Sep-18 02:00N 20°43' W 137°45'0 0.0
2017-Sep-18 00:00N 20°43' W 137°45'3 0.8
2017-Sep-17 20:00N 20°46' W 137°43'1 0.8
2017-Sep-17 19:00N 20°46' W 137°42'2 2.1
2017-Sep-17 18:00N 20°48' W 137°41'1 0.3
2017-Sep-17 15:00N 20°49' W 137°40'1 1.2
2017-Sep-17 14:00N 20°50' W 137°40'2 2.5
2017-Sep-17 13:00N 20°52' W 137°38'3 2.9
2017-Sep-17 12:00N 20°49' W 137°40'3 0.7
2017-Sep-17 07:00N 20°52' W 137°38'1 1.3
2017-Sep-17 06:00N 20°52' W 137°37'1 0.6
2017-Sep-17 05:00N 20°52' W 137°36'1 1.2
2017-Sep-17 04:00N 20°53' W 137°36'2 0.9
2017-Sep-17 02:00N 20°55' W 137°35'0 0.0
2017-Sep-17 01:00N 20°55' W 137°35'4 3.7
2017-Sep-17 00:00N 20°58' W 137°33'0 0.0
2017-Sep-16 19:00N 20°58' W 137°33'1 1.3
2017-Sep-16 18:00N 20°59' W 137°32'1 0.3
2017-Sep-16 16:00N 21°00' W 137°32'0 0.0
2017-Sep-16 15:00N 21°00' W 137°32'5 2.4
2017-Sep-16 13:00N 21°05' W 137°32'3 3.0
2017-Sep-16 12:00N 21°02' W 137°32'3 3.0
2017-Sep-16 11:00N 21°05' W 137°32'1 0.2
2017-Sep-16 07:00N 21°05' W 137°31'0 0.0
2017-Sep-16 06:00N 21°05' W 137°31'1 0.8
2017-Sep-16 05:00N 21°06' W 137°31'1 1.2
2017-Sep-16 04:00N 21°07' W 137°31'1 0.6
2017-Sep-16 03:00N 21°08' W 137°31'1 1.2
2017-Sep-16 02:00N 21°09' W 137°31'1 0.7
2017-Sep-16 00:00N 21°10' W 137°31'2 1.9
2017-Sep-15 23:00N 21°12' W 137°32'0 0.0
2017-Sep-15 22:00N 21°12' W 137°32'1 0.2
2017-Sep-15 19:00N 21°12' W 137°31'1 0.3
2017-Sep-15 17:00N 21°12' W 137°31'1 0.8
2017-Sep-15 16:00N 21°11' W 137°31'2 0.8
2017-Sep-15 14:00N 21°13' W 137°30'1 0.8
2017-Sep-15 13:00N 21°13' W 137°31'1 0.6
2017-Sep-15 12:00N 21°13' W 137°31'1 0.6
2017-Sep-15 11:00N 21°13' W 137°31'1 0.3
2017-Sep-15 07:00N 21°14' W 137°30'1 0.6
2017-Sep-15 06:00N 21°14' W 137°29'1 0.6
2017-Sep-15 05:00N 21°15' W 137°29'0 0.0
2017-Sep-15 04:00N 21°15' W 137°29'1 0.8
2017-Sep-15 03:00N 21°16' W 137°29'1 0.3
2017-Sep-15 01:00N 21°16' W 137°29'0 0.0
2017-Sep-15 00:00N 21°16' W 137°29'0 0.0
2017-Sep-14 23:00N 21°16' W 137°29'1 1.3
2017-Sep-14 22:00N 21°17' W 137°28'0 0.0
2017-Sep-14 20:00N 21°17' W 137°28'1 0.6
2017-Sep-14 19:00N 21°18' W 137°28'0 0.0
2017-Sep-14 18:00N 21°18' W 137°28'1 0.8
2017-Sep-14 17:00N 21°19' W 137°28'1 0.8
2017-Sep-14 16:00N 21°19' W 137°28'1 0.3
2017-Sep-14 14:00N 21°19' W 137°29'1 0.6
2017-Sep-14 13:00N 21°20' W 137°29'0 0.0
2017-Sep-14 12:00N 21°20' W 137°29'1 0.8
2017-Sep-14 11:00N 21°20' W 137°28'0 0.0
2017-Sep-14 07:00N 21°20' W 137°28'0 0.0
2017-Sep-14 06:00N 21°20' W 137°28'1 0.8
2017-Sep-14 05:00N 21°21' W 137°28'0 0.0
2017-Sep-14 04:00N 21°21' W 137°28'2 0.8
2017-Sep-14 01:00N 21°23' W 137°27'0 0.0
2017-Sep-14 00:00N 21°23' W 137°27'0 0.0
2017-Sep-13 23:00N 21°23' W 137°27'1 0.3
2017-Sep-13 19:00N 21°25' W 137°26'1 1.3
2017-Sep-13 18:00N 21°26' W 137°27'1 1.2
2017-Sep-13 17:00N 21°27' W 137°27'0 0.0
2017-Sep-13 15:00N 21°27' W 137°27'1 1.2
2017-Sep-13 14:00N 21°28' W 137°27'1 0.6
2017-Sep-13 13:00N 21°29' W 137°27'1 1.3
2017-Sep-13 12:00N 21°30' W 137°28'1 1.2
2017-Sep-13 11:00N 21°29' W 137°28'1 0.3
2017-Sep-13 07:00N 21°30' W 137°28'1 0.6
2017-Sep-13 06:00N 21°31' W 137°28'1 0.8
2017-Sep-13 05:00N 21°31' W 137°27'1 0.6
2017-Sep-13 04:00N 21°32' W 137°27'1 0.6
2017-Sep-13 02:00N 21°32' W 137°26'2 1.8
2017-Sep-13 01:00N 21°33' W 137°24'0 0.0
2017-Sep-13 00:00N 21°33' W 137°24'0 0.0
2017-Sep-12 23:00N 21°33' W 137°24'3 1.0
2017-Sep-12 20:00N 21°34' W 137°21'0 0.0
2017-Sep-12 19:00N 21°34' W 137°21'1 1.3
2017-Sep-12 18:00N 21°35' W 137°20'1 0.6
2017-Sep-12 17:00N 21°35' W 137°19'1 0.6
2017-Sep-12 16:00N 21°35' W 137°20'1 0.6
2017-Sep-12 15:00N 21°35' W 137°19'1 0.6
2017-Sep-12 14:00N 21°35' W 137°19'0 0.0
2017-Sep-12 13:00N 21°35' W 137°19'2 2.2
2017-Sep-12 12:00N 21°35' W 137°16'2 2.2
2017-Sep-12 11:00N 21°35' W 137°19'2 0.6
2017-Sep-12 07:00N 21°35' W 137°16'1 0.6
2017-Sep-12 06:00N 21°35' W 137°16'1 0.6
2017-Sep-12 05:00N 21°35' W 137°16'1 0.6
2017-Sep-12 04:00N 21°35' W 137°15'1 0.6
2017-Sep-12 03:00N 21°35' W 137°14'0 0.0
2017-Sep-12 02:00N 21°35' W 137°14'1 0.8
2017-Sep-12 01:00N 21°36' W 137°14'0 0.0
2017-Sep-12 00:00N 21°36' W 137°14'0 0.0
2017-Sep-11 23:00N 21°36' W 137°14'3 0.7
2017-Sep-11 19:00N 21°38' W 137°11'  
Track history (hours):
 
Tides and Currents Weather Stations Pressure Air Temp Water Temp Dewpoint Dewpoint Depression Visibility Wind Speed Wind Dir Waves Ship Positions

Drifting buoy 46623

Last reported at 2017-Sep-21 19:00 UTC. Time now 2017-Sep-21 23:13 UTC.
Position N 20°14' W 138°23'.

Date/timePositionNaut miles runAvg speedWind from/ knotsBaromVisibWave heightAir tempDewpointWater temp
2017-Sep-21 19:00N 20°14' W 138°23'1 0.8
2017-Sep-21 18:00N 20°15' W 138°22'1 0.6
2017-Sep-21 17:00N 20°16' W 138°22'0 0.0
2017-Sep-21 16:00N 20°16' W 138°22'1 0.7
2017-Sep-21 14:00N 20°17' W 138°22'1 0.6
2017-Sep-21 13:00N 20°17' W 138°21'3 2.9
2017-Sep-21 12:00N 20°19' W 138°19'0 0.0
2017-Sep-21 07:00N 20°19' W 138°19'1 0.6
2017-Sep-21 06:00N 20°19' W 138°18'1 1.3
2017-Sep-21 05:00N 20°19' W 138°17'1 0.8
2017-Sep-21 04:00N 20°20' W 138°16'1 1.3
2017-Sep-21 03:00N 20°20' W 138°17'2 1.8
2017-Sep-21 02:00N 20°21' W 138°16'0 0.0
2017-Sep-21 01:00N 20°21' W 138°16'1 0.7
2017-Sep-20 23:00N 20°22' W 138°15'4 0.9
2017-Sep-20 19:00N 20°25' W 138°13'1 0.3
2017-Sep-20 17:00N 20°25' W 138°12'0 0.0
2017-Sep-20 16:00N 20°25' W 138°12'0 0.0
2017-Sep-20 15:00N 20°25' W 138°12'1 0.8
2017-Sep-20 14:00N 20°26' W 138°11'1 0.6
2017-Sep-20 13:00N 20°26' W 138°11'3 3.1
2017-Sep-20 12:00N 20°28' W 138°08'0 0.0
2017-Sep-20 07:00N 20°28' W 138°08'1 1.3
2017-Sep-20 06:00N 20°28' W 138°07'1 0.6
2017-Sep-20 05:00N 20°29' W 138°07'1 0.6
2017-Sep-20 04:00N 20°29' W 138°07'1 0.6
2017-Sep-20 02:00N 20°29' W 138°06'0 0.0
2017-Sep-20 01:00N 20°29' W 138°06'3 3.1
2017-Sep-20 00:00N 20°31' W 138°03'0 0.0
2017-Sep-19 20:00N 20°31' W 138°03'1 0.8
2017-Sep-19 19:00N 20°31' W 138°02'1 0.4
2017-Sep-19 17:00N 20°31' W 138°02'1 0.6
2017-Sep-19 16:00N 20°31' W 138°02'2 1.7
2017-Sep-19 15:00N 20°31' W 138°00'2 0.9
2017-Sep-19 13:00N 20°32' W 138°02'5 4.8
2017-Sep-19 12:00N 20°34' W 137°57'0 0.0
2017-Sep-19 07:00N 20°34' W 137°57'1 0.6
2017-Sep-19 06:00N 20°34' W 137°56'1 0.6
2017-Sep-19 05:00N 20°34' W 137°56'2 1.6
2017-Sep-19 04:00N 20°35' W 137°55'0 0.0
2017-Sep-19 02:00N 20°35' W 137°55'1 0.3
2017-Sep-19 00:00N 20°35' W 137°55'1 0.6
2017-Sep-18 23:00N 20°35' W 137°55'4 0.9
2017-Sep-18 19:00N 20°37' W 137°52'0 0.0
2017-Sep-18 18:00N 20°37' W 137°52'0 0.0
2017-Sep-18 17:00N 20°37' W 137°52'1 1.3
2017-Sep-18 16:00N 20°37' W 137°50'0 0.0
2017-Sep-18 14:00N 20°37' W 137°50'1 0.8
2017-Sep-18 13:00N 20°38' W 137°50'2 2.5
2017-Sep-18 12:00N 20°40' W 137°48'1 0.2
2017-Sep-18 07:00N 20°40' W 137°47'1 0.6
2017-Sep-18 06:00N 20°41' W 137°47'1 0.6
2017-Sep-18 05:00N 20°41' W 137°47'1 0.8
2017-Sep-18 04:00N 20°41' W 137°46'2 2.1
2017-Sep-18 03:00N 20°43' W 137°45'0 0.0
2017-Sep-18 02:00N 20°43' W 137°45'0 0.0
2017-Sep-18 00:00N 20°43' W 137°45'3 0.8
2017-Sep-17 20:00N 20°46' W 137°43'1 0.8
2017-Sep-17 19:00N 20°46' W 137°42'2 2.1
2017-Sep-17 18:00N 20°48' W 137°41'1 0.3
2017-Sep-17 15:00N 20°49' W 137°40'1 1.2
2017-Sep-17 14:00N 20°50' W 137°40'2 2.5
2017-Sep-17 13:00N 20°52' W 137°38'3 2.9
2017-Sep-17 12:00N 20°49' W 137°40'3 0.7
2017-Sep-17 07:00N 20°52' W 137°38'1 1.3
2017-Sep-17 06:00N 20°52' W 137°37'1 0.6
2017-Sep-17 05:00N 20°52' W 137°36'1 1.2
2017-Sep-17 04:00N 20°53' W 137°36'2 0.9
2017-Sep-17 02:00N 20°55' W 137°35'0 0.0
2017-Sep-17 01:00N 20°55' W 137°35'4 3.7
2017-Sep-17 00:00N 20°58' W 137°33'0 0.0
2017-Sep-16 19:00N 20°58' W 137°33'1 1.3
2017-Sep-16 18:00N 20°59' W 137°32'1 0.3
2017-Sep-16 16:00N 21°00' W 137°32'0 0.0
2017-Sep-16 15:00N 21°00' W 137°32'5 2.4
2017-Sep-16 13:00N 21°05' W 137°32'3 3.0
2017-Sep-16 12:00N 21°02' W 137°32'3 3.0
2017-Sep-16 11:00N 21°05' W 137°32'1 0.2
2017-Sep-16 07:00N 21°05' W 137°31'0 0.0
2017-Sep-16 06:00N 21°05' W 137°31'1 0.8
2017-Sep-16 05:00N 21°06' W 137°31'1 1.2
2017-Sep-16 04:00N 21°07' W 137°31'1 0.6
2017-Sep-16 03:00N 21°08' W 137°31'1 1.2
2017-Sep-16 02:00N 21°09' W 137°31'1 0.7
2017-Sep-16 00:00N 21°10' W 137°31'2 1.9
2017-Sep-15 23:00N 21°12' W 137°32'0 0.0
2017-Sep-15 22:00N 21°12' W 137°32'1 0.2
2017-Sep-15 19:00N 21°12' W 137°31'1 0.3
2017-Sep-15 17:00N 21°12' W 137°31'1 0.8
2017-Sep-15 16:00N 21°11' W 137°31'2 0.8
2017-Sep-15 14:00N 21°13' W 137°30'1 0.8
2017-Sep-15 13:00N 21°13' W 137°31'1 0.6
2017-Sep-15 12:00N 21°13' W 137°31'1 0.6
2017-Sep-15 11:00N 21°13' W 137°31'1 0.3
2017-Sep-15 07:00N 21°14' W 137°30'1 0.6
2017-Sep-15 06:00N 21°14' W 137°29'1 0.6
2017-Sep-15 05:00N 21°15' W 137°29'0 0.0
2017-Sep-15 04:00N 21°15' W 137°29'1 0.8
2017-Sep-15 03:00N 21°16' W 137°29'1 0.3
2017-Sep-15 01:00N 21°16' W 137°29'0 0.0
2017-Sep-15 00:00N 21°16' W 137°29'0 0.0
2017-Sep-14 23:00N 21°16' W 137°29'1 1.3
2017-Sep-14 22:00N 21°17' W 137°28'0 0.0
2017-Sep-14 20:00N 21°17' W 137°28'1 0.6
2017-Sep-14 19:00N 21°18' W 137°28'0 0.0
2017-Sep-14 18:00N 21°18' W 137°28'1 0.8
2017-Sep-14 17:00N 21°19' W 137°28'1 0.8
2017-Sep-14 16:00N 21°19' W 137°28'1 0.3
2017-Sep-14 14:00N 21°19' W 137°29'1 0.6
2017-Sep-14 13:00N 21°20' W 137°29'0 0.0
2017-Sep-14 12:00N 21°20' W 137°29'1 0.8
2017-Sep-14 11:00N 21°20' W 137°28'0 0.0
2017-Sep-14 07:00N 21°20' W 137°28'0 0.0
2017-Sep-14 06:00N 21°20' W 137°28'1 0.8
2017-Sep-14 05:00N 21°21' W 137°28'0 0.0
2017-Sep-14 04:00N 21°21' W 137°28'2 0.8
2017-Sep-14 01:00N 21°23' W 137°27'0 0.0
2017-Sep-14 00:00N 21°23' W 137°27'0 0.0
2017-Sep-13 23:00N 21°23' W 137°27'1 0.3
2017-Sep-13 19:00N 21°25' W 137°26'1 1.3
2017-Sep-13 18:00N 21°26' W 137°27'1 1.2
2017-Sep-13 17:00N 21°27' W 137°27'0 0.0
2017-Sep-13 15:00N 21°27' W 137°27'1 1.2
2017-Sep-13 14:00N 21°28' W 137°27'1 0.6
2017-Sep-13 13:00N 21°29' W 137°27'1 1.3
2017-Sep-13 12:00N 21°30' W 137°28'1 1.2
2017-Sep-13 11:00N 21°29' W 137°28'1 0.3
2017-Sep-13 07:00N 21°30' W 137°28'1 0.6
2017-Sep-13 06:00N 21°31' W 137°28'1 0.8
2017-Sep-13 05:00N 21°31' W 137°27'1 0.6
2017-Sep-13 04:00N 21°32' W 137°27'1 0.6
2017-Sep-13 02:00N 21°32' W 137°26'2 1.8
2017-Sep-13 01:00N 21°33' W 137°24'0 0.0
2017-Sep-13 00:00N 21°33' W 137°24'0 0.0
2017-Sep-12 23:00N 21°33' W 137°24'3 1.0
2017-Sep-12 20:00N 21°34' W 137°21'0 0.0
2017-Sep-12 19:00N 21°34' W 137°21'1 1.3
2017-Sep-12 18:00N 21°35' W 137°20'1 0.6
2017-Sep-12 17:00N 21°35' W 137°19'1 0.6
2017-Sep-12 16:00N 21°35' W 137°20'1 0.6
2017-Sep-12 15:00N 21°35' W 137°19'1 0.6
2017-Sep-12 14:00N 21°35' W 137°19'0 0.0
2017-Sep-12 13:00N 21°35' W 137°19'2 2.2
2017-Sep-12 12:00N 21°35' W 137°16'2 2.2
2017-Sep-12 11:00N 21°35' W 137°19'2 0.6
2017-Sep-12 07:00N 21°35' W 137°16'1 0.6
2017-Sep-12 06:00N 21°35' W 137°16'1 0.6
2017-Sep-12 05:00N 21°35' W 137°16'1 0.6
2017-Sep-12 04:00N 21°35' W 137°15'1 0.6
2017-Sep-12 03:00N 21°35' W 137°14'0 0.0
2017-Sep-12 02:00N 21°35' W 137°14'1 0.8
2017-Sep-12 01:00N 21°36' W 137°14'0 0.0
2017-Sep-12 00:00N 21°36' W 137°14'0 0.0
2017-Sep-11 23:00N 21°36' W 137°14'3 0.7
2017-Sep-11 19:00N 21°38' W 137°11'  

Dump ship's entire track history